createdAt,value
2023-05-23T00:02:08.631Z,11.60
2023-05-23T00:04:52.490Z,11.70
2023-05-23T00:07:34.915Z,11.70
2023-05-23T00:10:17.506Z,11.70
2023-05-23T00:12:59.701Z,11.70
2023-05-23T00:15:42.760Z,11.70
2023-05-23T00:18:25.530Z,11.60
2023-05-23T00:21:08.098Z,11.60
2023-05-23T00:23:50.529Z,11.50
2023-05-23T00:26:33.120Z,11.40
2023-05-23T00:29:16.842Z,11.40
2023-05-23T00:31:59.556Z,11.40
2023-05-23T00:34:41.897Z,11.40
2023-05-23T00:37:24.481Z,11.40
2023-05-23T00:40:08.393Z,11.30
2023-05-23T00:42:50.895Z,11.30
2023-05-23T00:45:33.078Z,11.30
2023-05-23T00:48:16.448Z,11.20
2023-05-23T00:50:58.660Z,11.10
2023-05-23T00:53:42.151Z,11.10
2023-05-23T00:56:26.812Z,11.00
2023-05-23T00:59:09.743Z,11.00
2023-05-23T01:01:53.023Z,10.90
2023-05-23T01:04:37.145Z,10.90
2023-05-23T01:07:19.336Z,10.90
2023-05-23T01:10:02.172Z,10.80
2023-05-23T01:13:09.082Z,10.80
2023-05-23T01:15:55.834Z,10.80
2023-05-23T01:18:54.709Z,10.80
2023-05-23T01:21:39.661Z,10.80
2023-05-23T01:24:37.805Z,10.80
2023-05-23T01:27:32.769Z,10.70
2023-05-23T01:30:19.493Z,10.70
2023-05-23T01:33:03.548Z,10.60
2023-05-23T01:35:46.620Z,10.50
2023-05-23T01:38:29.761Z,10.50
2023-05-23T01:41:12.044Z,10.50
2023-05-23T01:43:55.518Z,10.50
2023-05-23T01:46:39.469Z,10.40
2023-05-23T01:49:23.155Z,10.40
2023-05-23T01:52:06.238Z,10.40
2023-05-23T01:54:50.999Z,10.30
2023-05-23T01:57:34.140Z,10.30
2023-05-23T02:00:17.298Z,10.20
2023-05-23T02:03:02.922Z,10.20
2023-05-23T02:05:45.656Z,10.20
2023-05-23T02:08:27.877Z,10.20
2023-05-23T02:11:10.806Z,10.20
2023-05-23T02:13:53.403Z,10.10
2023-05-23T02:16:36.717Z,10.20
2023-05-23T02:19:20.193Z,10.30
2023-05-23T02:22:03.623Z,10.30
2023-05-23T02:24:45.850Z,10.30
2023-05-23T02:27:28.929Z,10.30
2023-05-23T02:30:11.632Z,10.20
2023-05-23T02:32:54.119Z,10.20
2023-05-23T02:35:36.415Z,10.20
2023-05-23T02:38:20.724Z,10.20
2023-05-23T02:41:02.929Z,10.10
2023-05-23T02:43:47.354Z,10.10
2023-05-23T02:46:30.973Z,10.10
2023-05-23T02:49:13.589Z,10.10
2023-05-23T02:51:55.894Z,10.00
2023-05-23T02:54:38.787Z,10.00
2023-05-23T02:57:21.002Z,10.00
2023-05-23T03:00:04.493Z,10.00
2023-05-23T03:02:47.841Z,10.00
2023-05-23T03:05:30.492Z,10.00
2023-05-23T03:08:12.892Z,10.10
2023-05-23T03:10:55.851Z,10.10
2023-05-23T03:13:38.177Z,10.20
2023-05-23T03:16:22.023Z,10.20
2023-05-23T03:19:04.922Z,10.30
2023-05-23T03:21:47.839Z,10.40
2023-05-23T03:24:30.059Z,10.50
2023-05-23T03:27:12.744Z,10.60
2023-05-23T03:29:54.989Z,10.60
2023-05-23T03:32:37.761Z,10.70
2023-05-23T03:35:20.330Z,10.70
2023-05-23T03:38:03.656Z,10.90
2023-05-23T03:40:46.041Z,11.10
2023-05-23T03:43:28.819Z,11.20
2023-05-23T03:46:11.951Z,11.40
2023-05-23T03:48:55.150Z,11.50
2023-05-23T03:51:38.390Z,11.70
2023-05-23T03:54:21.380Z,11.80
2023-05-23T03:57:03.930Z,11.90
2023-05-23T03:59:46.580Z,12.00
2023-05-23T04:02:29.067Z,12.20
2023-05-23T04:05:12.015Z,12.30
2023-05-23T04:07:54.258Z,12.50
2023-05-23T04:10:36.934Z,12.70
2023-05-23T04:13:20.693Z,12.80
2023-05-23T04:16:05.877Z,13.10
2023-05-23T04:18:48.742Z,13.30
2023-05-23T04:21:31.429Z,13.50
2023-05-23T04:24:21.073Z,13.70
2023-05-23T04:27:03.739Z,14.00
2023-05-23T04:29:46.870Z,14.20
2023-05-23T04:32:30.450Z,14.30
2023-05-23T04:35:14.402Z,14.60
2023-05-23T04:37:57.827Z,14.80
2023-05-23T04:40:42.218Z,15.00
2023-05-23T04:43:43.124Z,15.20
2023-05-23T04:46:42.496Z,15.30
2023-05-23T04:49:48.231Z,15.50
2023-05-23T04:52:33.312Z,15.80
2023-05-23T04:55:16.496Z,16.10
2023-05-23T04:57:58.802Z,16.50
2023-05-23T05:00:41.906Z,17.00
2023-05-23T05:03:25.481Z,17.20
2023-05-23T05:06:09.439Z,17.50
2023-05-23T05:08:52.612Z,17.90
2023-05-23T05:11:37.439Z,18.30
2023-05-23T05:14:19.893Z,18.80
2023-05-23T05:17:02.855Z,19.00
2023-05-23T05:19:53.403Z,19.20
2023-05-23T05:22:37.063Z,19.40
2023-05-23T05:25:21.221Z,19.50
2023-05-23T05:28:06.269Z,19.70
2023-05-23T05:30:55.609Z,19.70
2023-05-23T05:33:46.299Z,19.90
2023-05-23T05:36:32.602Z,20.00
2023-05-23T05:39:15.785Z,20.50
2023-05-23T05:41:59.422Z,20.50
2023-05-23T05:44:42.693Z,20.60
2023-05-23T05:47:28.808Z,20.80
2023-05-23T05:50:12.060Z,21.10
2023-05-23T05:52:54.527Z,21.20
2023-05-23T05:55:38.109Z,21.10
2023-05-23T05:58:20.885Z,21.20
2023-05-23T06:01:12.657Z,21.40
2023-05-23T06:03:55.177Z,21.40
2023-05-23T06:06:38.473Z,21.50
2023-05-23T06:09:21.342Z,21.60
2023-05-23T06:12:04.070Z,21.80
2023-05-23T06:14:46.279Z,21.90
2023-05-23T06:17:29.481Z,22.00
2023-05-23T06:20:12.741Z,22.10
2023-05-23T06:23:00.338Z,22.00
2023-05-23T06:25:43.271Z,22.00
2023-05-23T06:28:26.365Z,22.00
2023-05-23T06:31:11.787Z,22.00
2023-05-23T06:33:54.650Z,22.20
2023-05-23T06:36:37.083Z,22.10
2023-05-23T06:39:19.881Z,21.90
2023-05-23T06:42:02.604Z,21.80
2023-05-23T06:44:56.551Z,21.90
2023-05-23T06:47:43.819Z,22.20
2023-05-23T06:50:26.702Z,22.30
2023-05-23T06:53:09.822Z,22.40
2023-05-23T06:55:52.865Z,22.50
2023-05-23T06:58:37.668Z,22.60
2023-05-23T07:01:20.413Z,22.60
2023-05-23T07:04:04.556Z,22.80
2023-05-23T07:06:47.768Z,23.00
2023-05-23T07:09:30.095Z,23.00
2023-05-23T07:12:22.854Z,23.00
2023-05-23T07:15:05.574Z,22.90
2023-05-23T07:17:48.463Z,22.90
2023-05-23T07:20:32.641Z,23.10
2023-05-23T07:23:24.439Z,23.20
2023-05-23T07:26:09.764Z,23.30
2023-05-23T07:29:08.530Z,23.30
2023-05-23T07:31:52.073Z,23.30
2023-05-23T07:34:36.363Z,23.50
2023-05-23T07:37:18.915Z,23.60
2023-05-23T07:40:01.993Z,23.50
2023-05-23T07:42:44.652Z,23.50
2023-05-23T07:45:27.433Z,23.80
2023-05-23T07:48:10.257Z,23.80
2023-05-23T07:50:55.314Z,23.60
2023-05-23T07:53:40.323Z,23.50
2023-05-23T07:56:27.273Z,23.70
2023-05-23T07:59:10.156Z,23.50
2023-05-23T08:01:53.154Z,23.40
2023-05-23T08:04:40.474Z,23.30
2023-05-23T08:07:23.710Z,23.50
2023-05-23T08:10:10.478Z,23.60
2023-05-23T08:12:55.179Z,23.60
2023-05-23T08:15:37.634Z,23.40
2023-05-23T08:18:31.841Z,23.50
2023-05-23T08:21:14.294Z,23.50
2023-05-23T08:23:57.027Z,23.60
2023-05-23T08:26:40.181Z,23.70
2023-05-23T08:29:26.249Z,23.80
2023-05-23T08:32:10.671Z,24.00
2023-05-23T08:34:54.279Z,23.80
2023-05-23T08:37:36.678Z,23.60
2023-05-23T08:40:21.587Z,23.50
2023-05-23T08:43:12.586Z,23.30
2023-05-23T08:45:55.471Z,23.30
2023-05-23T08:48:39.355Z,23.20
2023-05-23T08:51:25.966Z,23.40
2023-05-23T08:54:13.274Z,23.30
2023-05-23T08:56:56.008Z,23.20
2023-05-23T08:59:39.170Z,23.00
2023-05-23T09:02:22.964Z,23.00
2023-05-23T09:05:09.858Z,23.00
2023-05-23T09:07:53.921Z,23.00
2023-05-23T09:10:36.346Z,23.10
2023-05-23T09:13:20.579Z,23.20
2023-05-23T09:16:07.247Z,23.10
2023-05-23T09:18:55.959Z,23.40
2023-05-23T09:21:46.374Z,23.80
2023-05-23T09:24:37.411Z,24.00
2023-05-23T09:27:23.032Z,24.30
2023-05-23T09:30:10.373Z,24.10
2023-05-23T09:33:05.535Z,24.20
2023-05-23T09:35:49.254Z,24.00
2023-05-23T09:38:31.492Z,23.90
2023-05-23T09:41:14.275Z,23.90
2023-05-23T09:43:56.980Z,24.30
2023-05-23T09:46:39.853Z,24.50
2023-05-23T09:49:23.083Z,24.80
2023-05-23T09:52:06.040Z,24.50
2023-05-23T09:54:48.590Z,24.20
2023-05-23T09:57:34.928Z,24.00
2023-05-23T10:00:17.786Z,23.90
2023-05-23T10:03:14.481Z,23.90
2023-05-23T10:06:01.636Z,24.20
2023-05-23T10:08:50.404Z,24.20
2023-05-23T10:11:35.675Z,24.30
2023-05-23T10:14:19.028Z,24.20
2023-05-23T10:17:06.994Z,24.30
2023-05-23T10:20:08.614Z,24.40
2023-05-23T10:22:51.390Z,24.60
2023-05-23T10:25:37.112Z,24.70
2023-05-23T10:28:21.124Z,24.70
2023-05-23T10:31:04.162Z,24.40
2023-05-23T10:33:53.366Z,24.40
2023-05-23T10:37:02.552Z,24.20
2023-05-23T10:40:23.106Z,24.20
2023-05-23T10:43:18.576Z,24.20
2023-05-23T10:46:01.105Z,24.30
2023-05-23T10:48:45.128Z,24.30
2023-05-23T10:51:39.099Z,24.40
2023-05-23T10:54:21.788Z,24.40
2023-05-23T10:57:05.588Z,24.20
2023-05-23T10:59:51.407Z,24.00
2023-05-23T11:02:33.760Z,24.20
2023-05-23T11:05:24.776Z,24.10
2023-05-23T11:08:14.623Z,23.90
2023-05-23T11:11:01.068Z,23.80
2023-05-23T11:13:57.692Z,23.90
2023-05-23T11:16:42.075Z,23.80
2023-05-23T11:19:28.299Z,23.80
2023-05-23T11:22:11.230Z,23.80
2023-05-23T11:24:55.658Z,23.90
2023-05-23T11:27:40.887Z,24.10
2023-05-23T11:30:23.254Z,24.00
2023-05-23T11:33:17.455Z,24.00
2023-05-23T11:36:00.597Z,24.10
2023-05-23T11:38:43.544Z,24.30
2023-05-23T11:41:26.438Z,24.30
2023-05-23T11:44:13.497Z,24.30
2023-05-23T11:47:06.963Z,24.50
2023-05-23T11:49:49.674Z,24.70
2023-05-23T11:52:33.376Z,24.80
2023-05-23T11:55:15.985Z,24.80
2023-05-23T11:57:59.033Z,24.70
2023-05-23T12:00:46.433Z,24.70
2023-05-23T12:03:31.979Z,24.90
2023-05-23T12:06:16.563Z,24.70
2023-05-23T12:09:00.019Z,24.60
2023-05-23T12:11:44.135Z,24.50
2023-05-23T12:14:30.552Z,24.40
2023-05-23T12:17:13.970Z,24.40
2023-05-23T12:19:56.576Z,24.40
2023-05-23T12:22:39.210Z,24.40
2023-05-23T12:25:23.331Z,24.40
2023-05-23T12:28:06.168Z,24.50
2023-05-23T12:30:49.578Z,24.70
2023-05-23T12:33:32.337Z,24.80
2023-05-23T12:36:15.756Z,24.90
2023-05-23T12:39:06.059Z,24.70
2023-05-23T12:41:48.312Z,24.50
2023-05-23T12:44:31.980Z,24.40
2023-05-23T12:47:15.141Z,24.30
2023-05-23T12:49:57.796Z,24.40
2023-05-23T12:52:40.685Z,24.30
2023-05-23T12:55:23.375Z,24.50
2023-05-23T12:58:05.637Z,24.50
2023-05-23T13:00:48.222Z,24.50
2023-05-23T13:03:33.974Z,24.30
2023-05-23T13:06:16.546Z,24.40
2023-05-23T13:08:58.855Z,24.60
2023-05-23T13:11:41.817Z,24.60
2023-05-23T13:14:24.119Z,24.50
2023-05-23T13:17:08.303Z,24.50
2023-05-23T13:19:50.666Z,24.50
2023-05-23T13:22:33.501Z,24.60
2023-05-23T13:25:16.218Z,24.60
2023-05-23T13:27:58.790Z,24.70
2023-05-23T13:30:42.251Z,24.70
2023-05-23T13:33:26.382Z,24.50
2023-05-23T13:36:08.764Z,24.60
2023-05-23T13:38:51.701Z,24.70
2023-05-23T13:41:34.101Z,24.70
2023-05-23T13:44:16.858Z,24.60
2023-05-23T13:47:13.092Z,24.70
2023-05-23T13:49:57.285Z,24.90
2023-05-23T13:52:42.942Z,25.10
2023-05-23T13:55:27.688Z,25.20
2023-05-23T13:58:10.129Z,25.30
2023-05-23T14:00:53.235Z,25.30
2023-05-23T14:03:35.770Z,25.40
2023-05-23T14:06:18.501Z,25.40
2023-05-23T14:09:00.839Z,25.30
2023-05-23T14:11:43.605Z,25.00
2023-05-23T14:14:27.124Z,24.90
2023-05-23T14:17:16.062Z,24.80
2023-05-23T14:20:01.630Z,24.80
2023-05-23T14:22:44.294Z,24.80
2023-05-23T14:25:26.793Z,24.80
2023-05-23T14:28:09.625Z,24.80
2023-05-23T14:30:51.976Z,24.90
2023-05-23T14:33:35.033Z,24.70
2023-05-23T14:36:17.977Z,24.50
2023-05-23T14:39:01.476Z,24.60
2023-05-23T14:41:43.916Z,24.70
2023-05-23T14:44:26.593Z,24.80
2023-05-23T14:47:09.221Z,24.80
2023-05-23T14:49:51.868Z,24.70
2023-05-23T14:52:34.279Z,24.60
2023-05-23T14:55:17.134Z,24.60
2023-05-23T14:58:00.084Z,24.50
2023-05-23T15:00:42.956Z,24.50
2023-05-23T15:03:25.774Z,24.40
2023-05-23T15:06:08.577Z,24.30
2023-05-23T15:08:52.339Z,24.20
2023-05-23T15:11:38.935Z,24.20
2023-05-23T15:14:22.941Z,24.20
2023-05-23T15:17:08.241Z,24.20
2023-05-23T15:19:50.547Z,24.10
2023-05-23T15:25:26.993Z,23.90
2023-05-23T15:28:16.714Z,23.90
2023-05-23T15:30:59.659Z,23.80
2023-05-23T15:33:42.838Z,23.80
2023-05-23T15:36:25.090Z,23.60
2023-05-23T15:39:07.664Z,23.50
2023-05-23T15:41:49.891Z,23.40
2023-05-23T15:44:32.588Z,23.40
2023-05-23T15:47:14.956Z,23.30
2023-05-23T15:49:57.607Z,23.20
2023-05-23T15:52:39.949Z,23.20
2023-05-23T15:55:22.770Z,23.10
2023-05-23T15:58:06.118Z,23.00
2023-05-23T16:00:49.198Z,22.80
2023-05-23T16:03:31.609Z,22.80
2023-05-23T16:06:14.620Z,22.70
2023-05-23T16:08:57.000Z,22.70
2023-05-23T16:11:40.481Z,22.70
2023-05-23T16:14:23.265Z,22.70
2023-05-23T16:17:07.117Z,22.60
2023-05-23T16:19:49.513Z,22.70
2023-05-23T16:22:32.389Z,22.70
2023-05-23T16:25:14.764Z,22.70
2023-05-23T16:27:57.725Z,22.60
2023-05-23T16:30:40.761Z,22.60
2023-05-23T16:33:23.727Z,22.60
2023-05-23T16:36:06.757Z,22.70
2023-05-23T16:38:49.557Z,22.70
2023-05-23T16:41:31.975Z,22.60
2023-05-23T16:44:14.899Z,22.60
2023-05-23T16:46:57.526Z,22.60
2023-05-23T16:49:40.272Z,22.50
2023-05-23T16:52:22.706Z,22.50
2023-05-23T16:55:06.032Z,22.50
2023-05-23T16:57:48.433Z,22.40
2023-05-23T17:00:31.364Z,22.40
2023-05-23T17:03:13.792Z,22.30
2023-05-23T17:05:56.928Z,22.20
2023-05-23T17:08:39.313Z,22.20
2023-05-23T17:11:22.121Z,22.10
2023-05-23T17:14:04.535Z,22.10
2023-05-23T17:16:47.074Z,22.00
2023-05-23T17:19:29.829Z,21.80
2023-05-23T17:22:12.632Z,21.80
2023-05-23T17:24:55.792Z,21.70
2023-05-23T17:27:39.012Z,21.70
2023-05-23T17:30:22.085Z,21.60
2023-05-23T17:33:05.124Z,21.60
2023-05-23T17:35:47.861Z,21.50
2023-05-23T17:38:31.146Z,21.50
2023-05-23T17:41:14.680Z,21.50
2023-05-23T17:43:58.036Z,21.40
2023-05-23T17:46:40.997Z,21.30
2023-05-23T17:49:23.916Z,21.20
2023-05-23T17:52:09.648Z,21.20
2023-05-23T17:54:52.679Z,21.10
2023-05-23T17:57:35.108Z,21.10
2023-05-23T18:00:18.512Z,21.00
2023-05-23T18:03:02.019Z,21.00
2023-05-23T18:05:45.118Z,20.90
2023-05-23T18:08:27.616Z,20.90
2023-05-23T18:11:10.448Z,20.90
2023-05-23T18:13:53.967Z,20.80
2023-05-23T18:16:37.315Z,20.80
2023-05-23T18:19:19.846Z,20.70
2023-05-23T18:22:02.870Z,20.60
2023-05-23T18:24:45.907Z,20.60
2023-05-23T18:27:28.632Z,20.60
2023-05-23T18:30:11.380Z,20.50
2023-05-23T18:32:56.015Z,20.50
2023-05-23T18:35:38.752Z,20.50
2023-05-23T18:38:22.335Z,20.40
2023-05-23T18:41:04.672Z,20.40
2023-05-23T18:43:48.695Z,20.40
2023-05-23T18:46:31.517Z,20.30
2023-05-23T18:49:14.244Z,20.30
2023-05-23T18:51:56.771Z,20.20
2023-05-23T18:54:40.227Z,20.20
2023-05-23T18:57:22.852Z,20.20
2023-05-23T19:00:07.578Z,20.10
2023-05-23T19:02:50.391Z,20.10
2023-05-23T19:05:34.218Z,20.00
2023-05-23T19:08:17.748Z,20.00
2023-05-23T19:11:01.328Z,20.00
2023-05-23T19:13:43.879Z,20.00
2023-05-23T19:16:27.682Z,20.00
2023-05-23T19:19:11.598Z,19.90
2023-05-23T19:21:55.069Z,19.90
2023-05-23T19:24:38.065Z,19.90
2023-05-23T19:27:21.746Z,19.90
2023-05-23T19:30:05.140Z,19.90
2023-05-23T19:32:48.949Z,19.80
2023-05-23T19:35:32.803Z,19.80
2023-05-23T19:38:15.934Z,19.70
2023-05-23T19:40:58.472Z,19.70
2023-05-23T19:43:41.127Z,19.60
2023-05-23T19:46:23.604Z,19.60
2023-05-23T19:49:08.235Z,19.50
2023-05-23T19:51:50.738Z,19.40
2023-05-23T19:54:33.904Z,19.40
2023-05-23T19:57:16.328Z,19.30
2023-05-23T19:59:59.162Z,19.20
2023-05-23T20:02:45.053Z,19.20
2023-05-23T20:05:27.986Z,19.10
2023-05-23T20:08:10.517Z,19.10
2023-05-23T20:10:53.416Z,19.00
2023-05-23T20:13:37.731Z,18.80
2023-05-23T20:16:20.788Z,18.70
2023-05-23T20:19:03.349Z,18.60
2023-05-23T20:21:46.131Z,18.60
2023-05-23T20:24:31.783Z,18.60
2023-05-23T20:27:15.283Z,18.60
2023-05-23T20:29:57.766Z,18.60
2023-05-23T20:32:42.508Z,18.60
2023-05-23T20:35:26.047Z,18.60
2023-05-23T20:38:09.125Z,18.60
2023-05-23T20:40:52.767Z,18.60
2023-05-23T20:43:37.366Z,18.50
2023-05-23T20:46:19.776Z,18.50
2023-05-23T20:49:03.543Z,18.40
2023-05-23T20:51:45.789Z,18.40
2023-05-23T20:54:29.055Z,18.40
2023-05-23T20:57:11.528Z,18.30
2023-05-23T20:59:54.355Z,18.30
2023-05-23T21:02:36.988Z,18.30
2023-05-23T21:05:19.494Z,18.20
2023-05-23T21:08:02.089Z,18.20
2023-05-23T21:10:48.071Z,18.10
2023-05-23T21:13:32.450Z,18.10
2023-05-23T21:16:15.099Z,18.20
2023-05-23T21:18:57.429Z,18.20
2023-05-23T21:21:39.914Z,18.20
2023-05-23T21:24:22.230Z,18.20
2023-05-23T21:27:05.432Z,18.20
2023-05-23T21:29:47.602Z,18.10
2023-05-23T21:32:30.654Z,18.10
2023-05-23T21:35:12.918Z,18.10
2023-05-23T21:37:55.417Z,18.00
2023-05-23T21:40:37.598Z,18.00
2023-05-23T21:43:20.162Z,17.80
2023-05-23T21:46:02.374Z,17.80
2023-05-23T21:48:44.976Z,17.70
2023-05-23T21:51:27.508Z,17.60
2023-05-23T21:54:09.997Z,17.50
2023-05-23T21:56:52.337Z,17.40
2023-05-23T21:59:36.258Z,17.40
2023-05-23T22:02:18.834Z,17.30
2023-05-23T22:05:01.698Z,17.30
2023-05-23T22:07:43.949Z,17.20
2023-05-23T22:10:26.834Z,17.10
2023-05-23T22:13:09.599Z,17.10
2023-05-23T22:15:52.362Z,17.10
2023-05-23T22:18:50.962Z,17.00
2023-05-23T22:21:34.636Z,17.10
2023-05-23T22:24:16.881Z,17.10
2023-05-23T22:27:01.104Z,17.10
2023-05-23T22:29:43.548Z,17.10
2023-05-23T22:32:26.239Z,17.10
2023-05-23T22:35:08.953Z,17.10
2023-05-23T22:37:51.448Z,16.90
2023-05-23T22:40:33.835Z,16.80
2023-05-23T22:43:16.828Z,16.70
2023-05-23T22:45:59.012Z,16.70
2023-05-23T22:48:41.818Z,16.80
2023-05-23T22:51:24.845Z,16.80
2023-05-23T22:54:07.425Z,16.70
2023-05-23T22:56:49.638Z,16.70
2023-05-23T22:59:32.834Z,16.70
2023-05-23T23:02:15.072Z,16.70
2023-05-23T23:04:57.944Z,16.70
2023-05-23T23:07:40.373Z,16.70
2023-05-23T23:10:22.888Z,16.70
2023-05-23T23:13:05.079Z,16.60
2023-05-23T23:15:50.342Z,16.50
2023-05-23T23:18:32.661Z,16.50
2023-05-23T23:21:15.227Z,16.40
2023-05-23T23:23:57.372Z,16.30
2023-05-23T23:26:39.849Z,16.20
2023-05-23T23:29:22.497Z,16.20
2023-05-23T23:32:05.820Z,16.10
2023-05-23T23:34:48.089Z,16.10
2023-05-23T23:37:30.589Z,15.90
2023-05-23T23:40:13.328Z,16.00
2023-05-23T23:42:55.807Z,16.00
2023-05-23T23:45:38.007Z,16.00
2023-05-23T23:48:20.714Z,16.00
2023-05-23T23:51:03.060Z,16.00
2023-05-23T23:53:48.718Z,16.10
2023-05-23T23:56:32.087Z,16.10
2023-05-23T23:59:14.688Z,16.10
